sensor_id;sensor_type;location;lat;lon;timestamp;P1;durP1;ratioP1;P2;durP2;ratioP2
65289;SDS011;51893;59.754;10.110;2023-05-10T00:00:46;5.90;;;2.50;;
65289;SDS011;51893;59.754;10.110;2023-05-10T00:03:15;3.80;;;2.40;;
65289;SDS011;51893;59.754;10.110;2023-05-10T00:05:43;7.50;;;2.60;;
65289;SDS011;51893;59.754;10.110;2023-05-10T00:08:11;5.90;;;2.60;;
65289;SDS011;51893;59.754;10.110;2023-05-10T00:10:39;7.00;;;2.60;;
65289;SDS011;51893;59.754;10.110;2023-05-10T00:13:08;6.30;;;2.50;;
65289;SDS011;51893;59.754;10.110;2023-05-10T00:15:37;12.10;;;2.40;;
65289;SDS011;51893;59.754;10.110;2023-05-10T00:18:06;15.00;;;2.80;;
65289;SDS011;51893;59.754;10.110;2023-05-10T00:20:34;6.70;;;2.60;;
65289;SDS011;51893;59.754;10.110;2023-05-10T00:23:02;9.00;;;3.00;;
65289;SDS011;51893;59.754;10.110;2023-05-10T00:25:30;8.30;;;2.70;;
65289;SDS011;51893;59.754;10.110;2023-05-10T00:27:58;6.10;;;2.70;;
65289;SDS011;51893;59.754;10.110;2023-05-10T00:30:29;8.90;;;2.70;;
65289;SDS011;51893;59.754;10.110;2023-05-10T00:32:57;7.60;;;3.10;;
65289;SDS011;51893;59.754;10.110;2023-05-10T00:35:25;6.20;;;2.70;;
65289;SDS011;51893;59.754;10.110;2023-05-10T00:37:54;6.70;;;2.80;;
65289;SDS011;51893;59.754;10.110;2023-05-10T00:40:22;9.30;;;2.80;;
65289;SDS011;51893;59.754;10.110;2023-05-10T00:42:50;10.30;;;3.20;;
65289;SDS011;51893;59.754;10.110;2023-05-10T00:45:18;8.00;;;2.50;;
65289;SDS011;51893;59.754;10.110;2023-05-10T00:47:47;10.90;;;3.20;;
65289;SDS011;51893;59.754;10.110;2023-05-10T00:50:15;4.60;;;2.20;;
65289;SDS011;51893;59.754;10.110;2023-05-10T00:52:44;8.40;;;2.50;;
65289;SDS011;51893;59.754;10.110;2023-05-10T00:55:12;8.00;;;2.60;;
65289;SDS011;51893;59.754;10.110;2023-05-10T00:57:41;11.60;;;4.00;;
65289;SDS011;51893;59.754;10.110;2023-05-10T01:00:10;14.10;;;3.00;;
65289;SDS011;51893;59.754;10.110;2023-05-10T01:02:40;10.60;;;3.10;;
65289;SDS011;51893;59.754;10.110;2023-05-10T01:05:09;10.40;;;2.70;;
65289;SDS011;51893;59.754;10.110;2023-05-10T01:07:38;6.40;;;2.70;;
65289;SDS011;51893;59.754;10.110;2023-05-10T01:10:08;8.70;;;2.60;;
65289;SDS011;51893;59.754;10.110;2023-05-10T01:12:40;8.20;;;2.70;;
65289;SDS011;51893;59.754;10.110;2023-05-10T01:15:14;17.10;;;3.10;;
65289;SDS011;51893;59.754;10.110;2023-05-10T01:17:45;11.60;;;2.90;;
65289;SDS011;51893;59.754;10.110;2023-05-10T01:20:17;9.20;;;2.40;;
65289;SDS011;51893;59.754;10.110;2023-05-10T01:35:10;9.30;;;2.70;;
65289;SDS011;51893;59.754;10.110;2023-05-10T01:38:19;7.40;;;2.60;;
65289;SDS011;51893;59.754;10.110;2023-05-10T01:44:06;7.40;;;2.60;;
65289;SDS011;51893;59.754;10.110;2023-05-10T01:46:43;7.40;;;2.80;;
65289;SDS011;51893;59.754;10.110;2023-05-10T01:49:43;7.70;;;2.70;;
65289;SDS011;51893;59.754;10.110;2023-05-10T01:52:18;6.90;;;3.00;;
65289;SDS011;51893;59.754;10.110;2023-05-10T01:55:02;8.50;;;2.80;;
65289;SDS011;51893;59.754;10.110;2023-05-10T01:57:34;5.00;;;2.60;;
65289;SDS011;51893;59.754;10.110;2023-05-10T02:00:08;12.60;;;3.20;;
65289;SDS011;51893;59.754;10.110;2023-05-10T02:02:40;6.00;;;2.60;;
65289;SDS011;51893;59.754;10.110;2023-05-10T02:05:12;7.70;;;2.80;;
65289;SDS011;51893;59.754;10.110;2023-05-10T02:07:43;4.00;;;2.20;;
65289;SDS011;51893;59.754;10.110;2023-05-10T02:10:13;7.50;;;2.70;;
65289;SDS011;51893;59.754;10.110;2023-05-10T02:12:46;16.80;;;3.10;;
65289;SDS011;51893;59.754;10.110;2023-05-10T02:15:20;5.60;;;2.60;;
65289;SDS011;51893;59.754;10.110;2023-05-10T02:17:50;9.80;;;2.80;;
65289;SDS011;51893;59.754;10.110;2023-05-10T02:20:23;10.80;;;2.80;;
65289;SDS011;51893;59.754;10.110;2023-05-10T02:22:54;9.80;;;2.60;;
65289;SDS011;51893;59.754;10.110;2023-05-10T02:25:25;6.10;;;2.70;;
65289;SDS011;51893;59.754;10.110;2023-05-10T02:27:56;10.00;;;3.10;;
65289;SDS011;51893;59.754;10.110;2023-05-10T02:30:26;6.60;;;2.60;;
65289;SDS011;51893;59.754;10.110;2023-05-10T02:32:56;9.80;;;3.20;;
65289;SDS011;51893;59.754;10.110;2023-05-10T02:35:28;9.70;;;2.60;;
65289;SDS011;51893;59.754;10.110;2023-05-10T02:38:00;6.70;;;3.10;;
65289;SDS011;51893;59.754;10.110;2023-05-10T02:40:30;8.50;;;2.90;;
65289;SDS011;51893;59.754;10.110;2023-05-10T02:43:01;12.60;;;2.80;;
65289;SDS011;51893;59.754;10.110;2023-05-10T02:45:31;13.40;;;3.50;;
65289;SDS011;51893;59.754;10.110;2023-05-10T02:48:03;8.60;;;3.10;;
65289;SDS011;51893;59.754;10.110;2023-05-10T02:50:33;6.50;;;2.40;;
65289;SDS011;51893;59.754;10.110;2023-05-10T02:53:21;5.40;;;2.80;;
65289;SDS011;51893;59.754;10.110;2023-05-10T02:55:52;12.30;;;3.20;;
65289;SDS011;51893;59.754;10.110;2023-05-10T02:58:26;16.10;;;3.60;;
65289;SDS011;51893;59.754;10.110;2023-05-10T03:00:56;7.60;;;3.00;;
65289;SDS011;51893;59.754;10.110;2023-05-10T03:03:24;11.50;;;3.90;;
65289;SDS011;51893;59.754;10.110;2023-05-10T03:05:52;10.60;;;3.30;;
65289;SDS011;51893;59.754;10.110;2023-05-10T03:08:24;16.50;;;3.60;;
65289;SDS011;51893;59.754;10.110;2023-05-10T03:20:33;12.00;;;3.30;;
65289;SDS011;51893;59.754;10.110;2023-05-10T03:25:46;13.80;;;3.60;;
65289;SDS011;51893;59.754;10.110;2023-05-10T03:28:17;18.60;;;3.50;;
65289;SDS011;51893;59.754;10.110;2023-05-10T03:30:49;21.20;;;4.50;;
65289;SDS011;51893;59.754;10.110;2023-05-10T03:33:20;9.30;;;3.60;;
65289;SDS011;51893;59.754;10.110;2023-05-10T03:35:48;9.90;;;3.20;;
65289;SDS011;51893;59.754;10.110;2023-05-10T03:38:16;9.10;;;3.00;;
65289;SDS011;51893;59.754;10.110;2023-05-10T03:40:44;7.50;;;3.00;;
65289;SDS011;51893;59.754;10.110;2023-05-10T03:43:12;11.40;;;3.60;;
65289;SDS011;51893;59.754;10.110;2023-05-10T03:45:40;14.10;;;3.80;;
65289;SDS011;51893;59.754;10.110;2023-05-10T03:48:08;14.00;;;3.40;;
65289;SDS011;51893;59.754;10.110;2023-05-10T03:50:36;9.20;;;3.20;;
65289;SDS011;51893;59.754;10.110;2023-05-10T03:53:04;9.30;;;3.50;;
65289;SDS011;51893;59.754;10.110;2023-05-10T03:55:32;12.90;;;3.30;;
65289;SDS011;51893;59.754;10.110;2023-05-10T03:58:03;10.90;;;3.30;;
65289;SDS011;51893;59.754;10.110;2023-05-10T04:00:31;11.70;;;3.40;;
65289;SDS011;51893;59.754;10.110;2023-05-10T04:03:00;11.00;;;2.80;;
65289;SDS011;51893;59.754;10.110;2023-05-10T04:05:29;7.60;;;3.00;;
65289;SDS011;51893;59.754;10.110;2023-05-10T04:07:57;7.70;;;3.00;;
65289;SDS011;51893;59.754;10.110;2023-05-10T04:10:26;10.60;;;3.20;;
65289;SDS011;51893;59.754;10.110;2023-05-10T04:12:57;9.80;;;3.30;;
65289;SDS011;51893;59.754;10.110;2023-05-10T04:15:25;8.30;;;3.20;;
65289;SDS011;51893;59.754;10.110;2023-05-10T04:17:55;12.30;;;3.10;;
65289;SDS011;51893;59.754;10.110;2023-05-10T04:20:23;9.10;;;2.70;;
65289;SDS011;51893;59.754;10.110;2023-05-10T04:22:53;11.60;;;3.40;;
65289;SDS011;51893;59.754;10.110;2023-05-10T04:25:22;10.80;;;3.60;;
65289;SDS011;51893;59.754;10.110;2023-05-10T04:27:50;16.60;;;3.30;;
65289;SDS011;51893;59.754;10.110;2023-05-10T04:30:18;14.70;;;3.70;;
65289;SDS011;51893;59.754;10.110;2023-05-10T04:32:46;13.20;;;3.60;;
65289;SDS011;51893;59.754;10.110;2023-05-10T04:35:14;14.10;;;4.00;;
65289;SDS011;51893;59.754;10.110;2023-05-10T04:37:42;11.50;;;3.00;;
65289;SDS011;51893;59.754;10.110;2023-05-10T04:40:11;9.80;;;3.50;;
65289;SDS011;51893;59.754;10.110;2023-05-10T04:42:40;13.40;;;3.10;;
65289;SDS011;51893;59.754;10.110;2023-05-10T04:45:09;24.30;;;3.60;;
65289;SDS011;51893;59.754;10.110;2023-05-10T04:47:37;10.80;;;3.20;;
65289;SDS011;51893;59.754;10.110;2023-05-10T04:50:07;15.30;;;3.80;;
65289;SDS011;51893;59.754;10.110;2023-05-10T04:52:35;9.40;;;3.60;;
65289;SDS011;51893;59.754;10.110;2023-05-10T04:55:04;15.20;;;3.80;;
65289;SDS011;51893;59.754;10.110;2023-05-10T04:57:35;15.80;;;3.40;;
65289;SDS011;51893;59.754;10.110;2023-05-10T05:00:05;17.60;;;3.90;;
65289;SDS011;51893;59.754;10.110;2023-05-10T05:02:33;9.00;;;3.70;;
65289;SDS011;51893;59.754;10.110;2023-05-10T05:05:03;10.70;;;3.40;;
65289;SDS011;51893;59.754;10.110;2023-05-10T05:07:32;7.70;;;3.50;;
65289;SDS011;51893;59.754;10.110;2023-05-10T05:10:00;6.80;;;3.20;;
65289;SDS011;51893;59.754;10.110;2023-05-10T05:12:28;14.40;;;3.50;;
65289;SDS011;51893;59.754;10.110;2023-05-10T05:14:56;17.40;;;3.50;;
65289;SDS011;51893;59.754;10.110;2023-05-10T05:17:25;13.50;;;4.10;;
65289;SDS011;51893;59.754;10.110;2023-05-10T05:19:54;12.10;;;3.40;;
65289;SDS011;51893;59.754;10.110;2023-05-10T05:22:22;13.60;;;3.40;;
65289;SDS011;51893;59.754;10.110;2023-05-10T05:24:57;11.30;;;3.60;;
65289;SDS011;51893;59.754;10.110;2023-05-10T05:27:31;12.50;;;4.00;;
65289;SDS011;51893;59.754;10.110;2023-05-10T05:29:59;14.80;;;3.40;;
65289;SDS011;51893;59.754;10.110;2023-05-10T05:32:27;12.10;;;3.10;;
65289;SDS011;51893;59.754;10.110;2023-05-10T05:34:55;20.00;;;3.60;;
65289;SDS011;51893;59.754;10.110;2023-05-10T05:37:23;9.10;;;3.40;;
65289;SDS011;51893;59.754;10.110;2023-05-10T05:39:52;11.40;;;3.10;;
65289;SDS011;51893;59.754;10.110;2023-05-10T05:42:20;11.70;;;2.90;;
65289;SDS011;51893;59.754;10.110;2023-05-10T05:44:48;13.20;;;3.40;;
65289;SDS011;51893;59.754;10.110;2023-05-10T05:47:16;14.60;;;3.40;;
65289;SDS011;51893;59.754;10.110;2023-05-10T05:49:45;15.10;;;3.10;;
65289;SDS011;51893;59.754;10.110;2023-05-10T05:52:14;8.90;;;3.50;;
65289;SDS011;51893;59.754;10.110;2023-05-10T05:54:42;12.30;;;2.90;;
65289;SDS011;51893;59.754;10.110;2023-05-10T05:57:10;8.20;;;3.20;;
65289;SDS011;51893;59.754;10.110;2023-05-10T05:59:39;10.20;;;2.50;;
65289;SDS011;51893;59.754;10.110;2023-05-10T06:02:10;10.30;;;2.80;;
65289;SDS011;51893;59.754;10.110;2023-05-10T06:04:39;11.20;;;3.10;;
65289;SDS011;51893;59.754;10.110;2023-05-10T06:07:11;12.60;;;3.40;;
65289;SDS011;51893;59.754;10.110;2023-05-10T06:09:39;8.80;;;2.50;;
65289;SDS011;51893;59.754;10.110;2023-05-10T06:12:07;7.00;;;2.20;;
65289;SDS011;51893;59.754;10.110;2023-05-10T06:14:35;4.30;;;2.40;;
65289;SDS011;51893;59.754;10.110;2023-05-10T06:17:03;6.40;;;2.50;;
65289;SDS011;51893;59.754;10.110;2023-05-10T06:19:32;9.30;;;2.30;;
65289;SDS011;51893;59.754;10.110;2023-05-10T06:22:00;10.90;;;2.70;;
65289;SDS011;51893;59.754;10.110;2023-05-10T06:24:28;4.80;;;1.70;;
65289;SDS011;51893;59.754;10.110;2023-05-10T06:26:56;13.40;;;2.80;;
65289;SDS011;51893;59.754;10.110;2023-05-10T06:29:27;13.50;;;2.50;;
65289;SDS011;51893;59.754;10.110;2023-05-10T06:31:56;6.40;;;2.10;;
65289;SDS011;51893;59.754;10.110;2023-05-10T06:34:25;10.50;;;2.50;;
65289;SDS011;51893;59.754;10.110;2023-05-10T06:36:54;5.50;;;3.00;;
65289;SDS011;51893;59.754;10.110;2023-05-10T06:39:22;6.80;;;2.80;;
65289;SDS011;51893;59.754;10.110;2023-05-10T06:41:50;8.60;;;2.00;;
65289;SDS011;51893;59.754;10.110;2023-05-10T06:44:21;6.30;;;2.10;;
65289;SDS011;51893;59.754;10.110;2023-05-10T06:46:49;7.10;;;2.40;;
65289;SDS011;51893;59.754;10.110;2023-05-10T06:49:17;5.80;;;2.30;;
65289;SDS011;51893;59.754;10.110;2023-05-10T06:51:45;2.90;;;1.80;;
65289;SDS011;51893;59.754;10.110;2023-05-10T06:54:16;1.80;;;1.50;;
65289;SDS011;51893;59.754;10.110;2023-05-10T06:56:44;9.80;;;2.00;;
65289;SDS011;51893;59.754;10.110;2023-05-10T06:59:11;5.50;;;2.00;;
65289;SDS011;51893;59.754;10.110;2023-05-10T07:01:44;5.70;;;1.80;;
65289;SDS011;51893;59.754;10.110;2023-05-10T07:04:12;3.70;;;1.70;;
65289;SDS011;51893;59.754;10.110;2023-05-10T07:06:40;7.20;;;2.00;;
65289;SDS011;51893;59.754;10.110;2023-05-10T07:09:08;4.00;;;2.20;;
65289;SDS011;51893;59.754;10.110;2023-05-10T07:11:36;7.50;;;1.60;;
65289;SDS011;51893;59.754;10.110;2023-05-10T07:14:05;7.70;;;2.60;;
65289;SDS011;51893;59.754;10.110;2023-05-10T07:16:33;14.50;;;3.10;;
65289;SDS011;51893;59.754;10.110;2023-05-10T07:19:01;7.60;;;2.40;;
65289;SDS011;51893;59.754;10.110;2023-05-10T07:21:30;6.90;;;2.50;;
65289;SDS011;51893;59.754;10.110;2023-05-10T07:23:59;12.10;;;2.20;;
65289;SDS011;51893;59.754;10.110;2023-05-10T07:26:27;11.10;;;2.60;;
65289;SDS011;51893;59.754;10.110;2023-05-10T07:28:59;4.80;;;2.10;;
65289;SDS011;51893;59.754;10.110;2023-05-10T07:31:27;5.30;;;2.50;;
65289;SDS011;51893;59.754;10.110;2023-05-10T07:33:57;8.70;;;2.40;;
65289;SDS011;51893;59.754;10.110;2023-05-10T07:36:25;10.20;;;2.30;;
65289;SDS011;51893;59.754;10.110;2023-05-10T07:38:53;7.40;;;2.10;;
65289;SDS011;51893;59.754;10.110;2023-05-10T07:41:22;5.60;;;2.30;;
65289;SDS011;51893;59.754;10.110;2023-05-10T07:43:50;9.50;;;2.30;;
65289;SDS011;51893;59.754;10.110;2023-05-10T07:46:19;9.30;;;2.10;;
65289;SDS011;51893;59.754;10.110;2023-05-10T07:48:48;4.10;;;2.30;;
65289;SDS011;51893;59.754;10.110;2023-05-10T07:53:50;3.80;;;2.30;;
65289;SDS011;51893;59.754;10.110;2023-05-10T07:56:22;7.60;;;2.50;;
65289;SDS011;51893;59.754;10.110;2023-05-10T07:59:02;7.20;;;2.10;;
65289;SDS011;51893;59.754;10.110;2023-05-10T08:01:36;15.50;;;2.10;;
65289;SDS011;51893;59.754;10.110;2023-05-10T08:04:04;10.60;;;2.00;;
65289;SDS011;51893;59.754;10.110;2023-05-10T08:06:33;10.20;;;2.20;;
65289;SDS011;51893;59.754;10.110;2023-05-10T08:09:04;9.10;;;2.00;;
65289;SDS011;51893;59.754;10.110;2023-05-10T08:11:32;4.70;;;2.10;;
65289;SDS011;51893;59.754;10.110;2023-05-10T08:14:01;5.40;;;1.90;;
65289;SDS011;51893;59.754;10.110;2023-05-10T08:16:29;14.00;;;2.30;;
65289;SDS011;51893;59.754;10.110;2023-05-10T08:18:58;5.60;;;2.10;;
65289;SDS011;51893;59.754;10.110;2023-05-10T08:21:26;6.40;;;2.40;;
65289;SDS011;51893;59.754;10.110;2023-05-10T08:23:56;6.10;;;2.00;;
65289;SDS011;51893;59.754;10.110;2023-05-10T08:26:26;7.70;;;2.40;;
65289;SDS011;51893;59.754;10.110;2023-05-10T08:28:54;2.80;;;1.40;;
65289;SDS011;51893;59.754;10.110;2023-05-10T08:31:24;9.20;;;2.10;;
65289;SDS011;51893;59.754;10.110;2023-05-10T08:33:52;3.20;;;1.90;;
65289;SDS011;51893;59.754;10.110;2023-05-10T08:36:22;11.80;;;2.70;;
65289;SDS011;51893;59.754;10.110;2023-05-10T08:38:52;3.80;;;2.00;;
65289;SDS011;51893;59.754;10.110;2023-05-10T08:41:22;6.20;;;2.50;;
65289;SDS011;51893;59.754;10.110;2023-05-10T08:43:54;12.20;;;2.90;;
65289;SDS011;51893;59.754;10.110;2023-05-10T08:46:25;4.70;;;2.00;;
65289;SDS011;51893;59.754;10.110;2023-05-10T08:48:58;2.70;;;2.00;;
65289;SDS011;51893;59.754;10.110;2023-05-10T08:51:35;3.50;;;1.60;;
65289;SDS011;51893;59.754;10.110;2023-05-10T08:54:10;5.50;;;2.00;;
65289;SDS011;51893;59.754;10.110;2023-05-10T08:56:38;9.30;;;2.00;;
65289;SDS011;51893;59.754;10.110;2023-05-10T08:59:06;5.40;;;2.30;;
65289;SDS011;51893;59.754;10.110;2023-05-10T09:01:35;9.20;;;1.90;;
65289;SDS011;51893;59.754;10.110;2023-05-10T09:04:04;8.80;;;2.40;;
65289;SDS011;51893;59.754;10.110;2023-05-10T09:06:33;2.40;;;2.20;;
65289;SDS011;51893;59.754;10.110;2023-05-10T09:09:01;4.30;;;2.00;;
65289;SDS011;51893;59.754;10.110;2023-05-10T09:11:31;5.50;;;2.00;;
65289;SDS011;51893;59.754;10.110;2023-05-10T09:14:01;2.60;;;1.60;;
65289;SDS011;51893;59.754;10.110;2023-05-10T09:16:34;13.20;;;2.70;;
65289;SDS011;51893;59.754;10.110;2023-05-10T09:19:02;5.60;;;2.10;;
65289;SDS011;51893;59.754;10.110;2023-05-10T09:21:31;3.30;;;2.00;;
65289;SDS011;51893;59.754;10.110;2023-05-10T09:24:03;3.60;;;2.10;;
65289;SDS011;51893;59.754;10.110;2023-05-10T09:26:45;8.30;;;2.20;;
65289;SDS011;51893;59.754;10.110;2023-05-10T09:29:17;6.00;;;2.10;;
65289;SDS011;51893;59.754;10.110;2023-05-10T09:31:50;11.50;;;2.10;;
65289;SDS011;51893;59.754;10.110;2023-05-10T09:34:29;10.60;;;2.50;;
65289;SDS011;51893;59.754;10.110;2023-05-10T09:37:00;3.60;;;2.10;;
65289;SDS011;51893;59.754;10.110;2023-05-10T09:39:32;7.10;;;2.30;;
65289;SDS011;51893;59.754;10.110;2023-05-10T09:42:09;3.60;;;1.80;;
65289;SDS011;51893;59.754;10.110;2023-05-10T09:44:38;4.80;;;2.00;;
65289;SDS011;51893;59.754;10.110;2023-05-10T09:47:08;4.60;;;1.90;;
65289;SDS011;51893;59.754;10.110;2023-05-10T09:49:38;2.90;;;1.80;;
65289;SDS011;51893;59.754;10.110;2023-05-10T09:52:07;7.00;;;1.70;;
65289;SDS011;51893;59.754;10.110;2023-05-10T09:54:45;3.60;;;2.00;;
65289;SDS011;51893;59.754;10.110;2023-05-10T09:57:22;5.40;;;1.90;;
65289;SDS011;51893;59.754;10.110;2023-05-10T09:59:51;4.00;;;1.70;;
65289;SDS011;51893;59.754;10.110;2023-05-10T10:02:28;5.50;;;1.80;;
65289;SDS011;51893;59.754;10.110;2023-05-10T10:04:58;2.50;;;1.40;;
65289;SDS011;51893;59.754;10.110;2023-05-10T10:07:29;5.30;;;2.00;;
65289;SDS011;51893;59.754;10.110;2023-05-10T10:09:58;4.90;;;2.00;;
65289;SDS011;51893;59.754;10.110;2023-05-10T10:12:27;5.20;;;2.30;;
65289;SDS011;51893;59.754;10.110;2023-05-10T10:14:55;2.90;;;2.00;;
65289;SDS011;51893;59.754;10.110;2023-05-10T10:17:26;6.50;;;2.20;;
65289;SDS011;51893;59.754;10.110;2023-05-10T10:19:57;5.30;;;2.00;;
65289;SDS011;51893;59.754;10.110;2023-05-10T10:22:26;6.00;;;2.00;;
65289;SDS011;51893;59.754;10.110;2023-05-10T10:24:54;2.10;;;1.40;;
65289;SDS011;51893;59.754;10.110;2023-05-10T10:30:41;2.60;;;1.70;;
65289;SDS011;51893;59.754;10.110;2023-05-10T10:36:08;4.80;;;2.60;;
65289;SDS011;51893;59.754;10.110;2023-05-10T10:41:38;5.60;;;2.20;;
65289;SDS011;51893;59.754;10.110;2023-05-10T10:50:03;3.40;;;1.60;;
65289;SDS011;51893;59.754;10.110;2023-05-10T10:52:37;5.90;;;2.40;;
65289;SDS011;51893;59.754;10.110;2023-05-10T10:55:07;4.30;;;2.40;;
65289;SDS011;51893;59.754;10.110;2023-05-10T10:57:58;3.70;;;2.40;;
65289;SDS011;51893;59.754;10.110;2023-05-10T11:00:37;4.50;;;1.90;;
65289;SDS011;51893;59.754;10.110;2023-05-10T11:03:14;5.40;;;1.90;;
65289;SDS011;51893;59.754;10.110;2023-05-10T11:05:48;5.80;;;2.40;;
65289;SDS011;51893;59.754;10.110;2023-05-10T11:08:30;5.90;;;2.00;;
65289;SDS011;51893;59.754;10.110;2023-05-10T11:11:05;1.60;;;1.50;;
65289;SDS011;51893;59.754;10.110;2023-05-10T11:13:42;2.30;;;1.50;;
65289;SDS011;51893;59.754;10.110;2023-05-10T11:19:04;5.20;;;2.70;;
65289;SDS011;51893;59.754;10.110;2023-05-10T11:21:49;7.40;;;2.30;;
65289;SDS011;51893;59.754;10.110;2023-05-10T11:24:20;8.90;;;2.70;;
65289;SDS011;51893;59.754;10.110;2023-05-10T11:26:50;6.10;;;2.10;;
65289;SDS011;51893;59.754;10.110;2023-05-10T11:29:19;2.90;;;2.00;;
65289;SDS011;51893;59.754;10.110;2023-05-10T11:31:49;4.00;;;1.80;;
65289;SDS011;51893;59.754;10.110;2023-05-10T11:34:24;6.20;;;2.20;;
65289;SDS011;51893;59.754;10.110;2023-05-10T11:36:59;6.40;;;2.20;;
65289;SDS011;51893;59.754;10.110;2023-05-10T11:39:31;8.40;;;2.80;;
65289;SDS011;51893;59.754;10.110;2023-05-10T11:42:01;5.80;;;2.60;;
65289;SDS011;51893;59.754;10.110;2023-05-10T11:44:32;8.40;;;2.80;;
65289;SDS011;51893;59.754;10.110;2023-05-10T11:47:01;10.90;;;3.10;;
65289;SDS011;51893;59.754;10.110;2023-05-10T11:49:32;5.30;;;2.50;;
65289;SDS011;51893;59.754;10.110;2023-05-10T11:52:04;4.30;;;2.90;;
65289;SDS011;51893;59.754;10.110;2023-05-10T11:54:36;2.30;;;1.60;;
65289;SDS011;51893;59.754;10.110;2023-05-10T11:57:05;5.20;;;2.20;;
65289;SDS011;51893;59.754;10.110;2023-05-10T11:59:34;7.60;;;2.30;;
65289;SDS011;51893;59.754;10.110;2023-05-10T12:02:04;4.60;;;2.20;;
65289;SDS011;51893;59.754;10.110;2023-05-10T12:04:32;5.50;;;2.50;;
65289;SDS011;51893;59.754;10.110;2023-05-10T12:07:01;6.70;;;2.80;;
65289;SDS011;51893;59.754;10.110;2023-05-10T12:09:29;4.90;;;2.30;;
65289;SDS011;51893;59.754;10.110;2023-05-10T12:12:20;4.80;;;2.50;;
65289;SDS011;51893;59.754;10.110;2023-05-10T12:14:50;7.00;;;2.40;;
65289;SDS011;51893;59.754;10.110;2023-05-10T12:17:18;7.10;;;2.70;;
65289;SDS011;51893;59.754;10.110;2023-05-10T12:19:47;4.50;;;2.10;;
65289;SDS011;51893;59.754;10.110;2023-05-10T12:22:20;7.90;;;2.00;;
65289;SDS011;51893;59.754;10.110;2023-05-10T12:24:50;4.40;;;2.20;;
65289;SDS011;51893;59.754;10.110;2023-05-10T12:27:18;4.80;;;2.40;;
65289;SDS011;51893;59.754;10.110;2023-05-10T12:29:47;5.00;;;2.50;;
65289;SDS011;51893;59.754;10.110;2023-05-10T12:32:16;4.40;;;1.90;;
65289;SDS011;51893;59.754;10.110;2023-05-10T12:34:46;2.20;;;1.90;;
65289;SDS011;51893;59.754;10.110;2023-05-10T12:37:17;3.90;;;1.90;;
65289;SDS011;51893;59.754;10.110;2023-05-10T12:39:46;11.20;;;2.60;;
65289;SDS011;51893;59.754;10.110;2023-05-10T12:42:18;16.40;;;3.10;;
65289;SDS011;51893;59.754;10.110;2023-05-10T12:44:46;3.60;;;2.00;;
65289;SDS011;51893;59.754;10.110;2023-05-10T12:47:14;3.60;;;2.40;;
65289;SDS011;51893;59.754;10.110;2023-05-10T12:49:42;7.20;;;1.80;;
65289;SDS011;51893;59.754;10.110;2023-05-10T12:52:10;4.90;;;2.20;;
65289;SDS011;51893;59.754;10.110;2023-05-10T12:54:38;2.50;;;2.10;;
65289;SDS011;51893;59.754;10.110;2023-05-10T12:57:07;6.90;;;2.50;;
65289;SDS011;51893;59.754;10.110;2023-05-10T12:59:36;5.30;;;2.30;;
65289;SDS011;51893;59.754;10.110;2023-05-10T13:02:05;4.10;;;1.60;;
65289;SDS011;51893;59.754;10.110;2023-05-10T13:04:34;2.90;;;1.90;;
65289;SDS011;51893;59.754;10.110;2023-05-10T13:07:06;2.20;;;1.40;;
65289;SDS011;51893;59.754;10.110;2023-05-10T13:09:35;1.70;;;1.60;;
65289;SDS011;51893;59.754;10.110;2023-05-10T13:12:03;5.30;;;2.50;;
65289;SDS011;51893;59.754;10.110;2023-05-10T13:14:36;2.70;;;1.50;;
65289;SDS011;51893;59.754;10.110;2023-05-10T13:17:04;4.50;;;2.00;;
65289;SDS011;51893;59.754;10.110;2023-05-10T13:19:33;4.60;;;2.20;;
65289;SDS011;51893;59.754;10.110;2023-05-10T13:22:01;3.20;;;2.50;;
65289;SDS011;51893;59.754;10.110;2023-05-10T13:24:29;5.80;;;2.20;;
65289;SDS011;51893;59.754;10.110;2023-05-10T13:27:01;5.30;;;2.50;;
65289;SDS011;51893;59.754;10.110;2023-05-10T13:29:29;3.80;;;1.60;;
65289;SDS011;51893;59.754;10.110;2023-05-10T13:31:58;5.50;;;2.60;;
65289;SDS011;51893;59.754;10.110;2023-05-10T13:34:26;2.10;;;1.90;;
65289;SDS011;51893;59.754;10.110;2023-05-10T13:36:54;2.20;;;1.90;;
65289;SDS011;51893;59.754;10.110;2023-05-10T13:39:23;6.80;;;2.10;;
65289;SDS011;51893;59.754;10.110;2023-05-10T13:41:52;4.30;;;2.40;;
65289;SDS011;51893;59.754;10.110;2023-05-10T13:44:22;3.80;;;1.50;;
65289;SDS011;51893;59.754;10.110;2023-05-10T13:46:51;2.20;;;1.80;;
65289;SDS011;51893;59.754;10.110;2023-05-10T13:49:19;9.30;;;2.50;;
65289;SDS011;51893;59.754;10.110;2023-05-10T13:51:48;3.30;;;2.30;;
65289;SDS011;51893;59.754;10.110;2023-05-10T13:54:19;3.40;;;2.10;;
65289;SDS011;51893;59.754;10.110;2023-05-10T13:56:48;3.40;;;2.10;;
65289;SDS011;51893;59.754;10.110;2023-05-10T13:59:18;4.10;;;2.20;;
65289;SDS011;51893;59.754;10.110;2023-05-10T14:01:48;5.50;;;2.50;;
65289;SDS011;51893;59.754;10.110;2023-05-10T14:04:17;5.80;;;2.20;;
65289;SDS011;51893;59.754;10.110;2023-05-10T14:06:45;6.00;;;2.40;;
65289;SDS011;51893;59.754;10.110;2023-05-10T14:09:14;2.80;;;2.40;;
65289;SDS011;51893;59.754;10.110;2023-05-10T14:11:42;2.40;;;2.20;;
65289;SDS011;51893;59.754;10.110;2023-05-10T14:14:12;3.30;;;2.30;;
65289;SDS011;51893;59.754;10.110;2023-05-10T14:16:43;5.10;;;2.20;;
65289;SDS011;51893;59.754;10.110;2023-05-10T14:19:11;5.40;;;2.00;;
65289;SDS011;51893;59.754;10.110;2023-05-10T14:21:42;14.20;;;2.50;;
65289;SDS011;51893;59.754;10.110;2023-05-10T14:24:10;3.10;;;2.30;;
65289;SDS011;51893;59.754;10.110;2023-05-10T14:26:40;8.30;;;2.10;;
65289;SDS011;51893;59.754;10.110;2023-05-10T14:29:09;4.20;;;2.20;;
65289;SDS011;51893;59.754;10.110;2023-05-10T14:31:40;2.90;;;2.20;;
65289;SDS011;51893;59.754;10.110;2023-05-10T14:34:08;5.60;;;2.60;;
65289;SDS011;51893;59.754;10.110;2023-05-10T14:36:36;8.90;;;2.10;;
65289;SDS011;51893;59.754;10.110;2023-05-10T14:39:04;4.30;;;2.60;;
65289;SDS011;51893;59.754;10.110;2023-05-10T14:41:34;10.40;;;2.60;;
65289;SDS011;51893;59.754;10.110;2023-05-10T14:44:03;6.90;;;2.60;;
65289;SDS011;51893;59.754;10.110;2023-05-10T14:46:31;7.30;;;1.90;;
65289;SDS011;51893;59.754;10.110;2023-05-10T14:48:59;1.70;;;1.60;;
65289;SDS011;51893;59.754;10.110;2023-05-10T14:51:27;1.30;;;1.20;;
65289;SDS011;51893;59.754;10.110;2023-05-10T14:53:58;3.10;;;2.00;;
65289;SDS011;51893;59.754;10.110;2023-05-10T14:56:26;3.70;;;1.80;;
65289;SDS011;51893;59.754;10.110;2023-05-10T14:58:55;2.50;;;1.60;;
65289;SDS011;51893;59.754;10.110;2023-05-10T15:01:24;5.20;;;1.90;;
65289;SDS011;51893;59.754;10.110;2023-05-10T15:03:53;4.00;;;2.30;;
65289;SDS011;51893;59.754;10.110;2023-05-10T15:06:32;3.70;;;1.80;;
65289;SDS011;51893;59.754;10.110;2023-05-10T15:09:02;3.40;;;1.80;;
65289;SDS011;51893;59.754;10.110;2023-05-10T15:11:32;2.80;;;2.10;;
65289;SDS011;51893;59.754;10.110;2023-05-10T15:14:01;6.50;;;2.00;;
65289;SDS011;51893;59.754;10.110;2023-05-10T15:16:29;2.50;;;2.20;;
65289;SDS011;51893;59.754;10.110;2023-05-10T15:19:01;2.20;;;1.60;;
65289;SDS011;51893;59.754;10.110;2023-05-10T15:21:30;2.10;;;1.90;;
65289;SDS011;51893;59.754;10.110;2023-05-10T15:24:02;6.40;;;2.20;;
65289;SDS011;51893;59.754;10.110;2023-05-10T15:26:31;4.60;;;1.90;;
65289;SDS011;51893;59.754;10.110;2023-05-10T15:28:59;3.20;;;2.50;;
65289;SDS011;51893;59.754;10.110;2023-05-10T15:31:27;2.70;;;2.20;;
65289;SDS011;51893;59.754;10.110;2023-05-10T15:33:58;3.20;;;1.70;;
65289;SDS011;51893;59.754;10.110;2023-05-10T15:36:27;8.20;;;2.10;;